sensor_id;sensor_type;location;lat;lon;timestamp;temperature;humidity
32366;DHT22;18837;46.832;16.838;2023-04-27T00:00:30;12.20;78.70
32366;DHT22;18837;46.832;16.838;2023-04-27T00:02:56;12.20;78.60
32366;DHT22;18837;46.832;16.838;2023-04-27T00:05:22;12.20;79.00
32366;DHT22;18837;46.832;16.838;2023-04-27T00:07:48;12.20;79.20
32366;DHT22;18837;46.832;16.838;2023-04-27T00:10:13;12.20;79.10
32366;DHT22;18837;46.832;16.838;2023-04-27T00:12:45;12.20;78.80
32366;DHT22;18837;46.832;16.838;2023-04-27T00:15:11;12.20;78.80
32366;DHT22;18837;46.832;16.838;2023-04-27T00:17:36;12.20;79.00
32366;DHT22;18837;46.832;16.838;2023-04-27T00:20:02;12.20;79.00
32366;DHT22;18837;46.832;16.838;2023-04-27T00:22:30;12.20;79.30
32366;DHT22;18837;46.832;16.838;2023-04-27T00:24:55;12.10;79.00
32366;DHT22;18837;46.832;16.838;2023-04-27T00:27:21;12.10;79.40
32366;DHT22;18837;46.832;16.838;2023-04-27T00:30:14;12.10;79.30
32366;DHT22;18837;46.832;16.838;2023-04-27T00:32:59;12.10;80.10
32366;DHT22;18837;46.832;16.838;2023-04-27T00:35:25;12.10;79.50
32366;DHT22;18837;46.832;16.838;2023-04-27T00:37:52;12.10;79.60
32366;DHT22;18837;46.832;16.838;2023-04-27T00:40:19;12.10;79.30
32366;DHT22;18837;46.832;16.838;2023-04-27T00:42:45;12.10;79.20
32366;DHT22;18837;46.832;16.838;2023-04-27T00:45:11;12.00;79.10
32366;DHT22;18837;46.832;16.838;2023-04-27T00:47:37;12.00;79.30
32366;DHT22;18837;46.832;16.838;2023-04-27T00:50:04;12.00;79.60
32366;DHT22;18837;46.832;16.838;2023-04-27T00:52:34;12.00;79.70
32366;DHT22;18837;46.832;16.838;2023-04-27T00:55:02;12.00;79.40
32366;DHT22;18837;46.832;16.838;2023-04-27T00:57:28;12.00;79.60
32366;DHT22;18837;46.832;16.838;2023-04-27T00:59:54;11.90;79.90
32366;DHT22;18837;46.832;16.838;2023-04-27T01:02:29;12.00;80.10
32366;DHT22;18837;46.832;16.838;2023-04-27T01:04:55;12.00;79.60
32366;DHT22;18837;46.832;16.838;2023-04-27T01:07:25;11.90;79.70
32366;DHT22;18837;46.832;16.838;2023-04-27T01:09:51;11.90;79.50
32366;DHT22;18837;46.832;16.838;2023-04-27T01:12:17;11.90;79.80
32366;DHT22;18837;46.832;16.838;2023-04-27T01:14:43;11.90;79.90
32366;DHT22;18837;46.832;16.838;2023-04-27T01:17:24;11.90;80.80
32366;DHT22;18837;46.832;16.838;2023-04-27T01:20:10;11.90;80.00
32366;DHT22;18837;46.832;16.838;2023-04-27T01:22:57;11.80;80.70
32366;DHT22;18837;46.832;16.838;2023-04-27T01:25:24;11.80;79.90
32366;DHT22;18837;46.832;16.838;2023-04-27T01:27:50;11.80;80.10
32366;DHT22;18837;46.832;16.838;2023-04-27T01:30:16;11.80;80.50
32366;DHT22;18837;46.832;16.838;2023-04-27T01:32:41;11.80;80.80
32366;DHT22;18837;46.832;16.838;2023-04-27T01:35:07;11.80;80.20
32366;DHT22;18837;46.832;16.838;2023-04-27T01:37:49;11.80;81.40
32366;DHT22;18837;46.832;16.838;2023-04-27T01:40:15;11.80;80.20
32366;DHT22;18837;46.832;16.838;2023-04-27T01:42:41;11.80;80.50
32366;DHT22;18837;46.832;16.838;2023-04-27T01:45:07;11.80;80.50
32366;DHT22;18837;46.832;16.838;2023-04-27T01:47:33;11.80;81.10
32366;DHT22;18837;46.832;16.838;2023-04-27T01:49:59;11.70;80.60
32366;DHT22;18837;46.832;16.838;2023-04-27T01:52:50;11.70;80.50
32366;DHT22;18837;46.832;16.838;2023-04-27T01:55:40;11.70;81.00
32366;DHT22;18837;46.832;16.838;2023-04-27T01:58:18;11.70;80.50
32366;DHT22;18837;46.832;16.838;2023-04-27T02:00:44;11.70;80.70
32366;DHT22;18837;46.832;16.838;2023-04-27T02:03:10;11.70;80.90
32366;DHT22;18837;46.832;16.838;2023-04-27T02:05:36;11.70;82.00
32366;DHT22;18837;46.832;16.838;2023-04-27T02:08:02;11.70;81.00
32366;DHT22;18837;46.832;16.838;2023-04-27T02:10:28;11.70;82.00
32366;DHT22;18837;46.832;16.838;2023-04-27T02:13:03;11.70;81.30
32366;DHT22;18837;46.832;16.838;2023-04-27T02:15:28;11.70;80.80
32366;DHT22;18837;46.832;16.838;2023-04-27T02:17:54;11.60;81.10
32366;DHT22;18837;46.832;16.838;2023-04-27T02:20:20;11.60;80.80
32366;DHT22;18837;46.832;16.838;2023-04-27T02:22:46;11.60;81.40
32366;DHT22;18837;46.832;16.838;2023-04-27T02:25:12;11.60;81.50
32366;DHT22;18837;46.832;16.838;2023-04-27T02:27:50;11.60;81.00
32366;DHT22;18837;46.832;16.838;2023-04-27T02:30:41;11.60;81.00
32366;DHT22;18837;46.832;16.838;2023-04-27T02:33:07;11.50;81.70
32366;DHT22;18837;46.832;16.838;2023-04-27T02:35:33;11.50;80.80
32366;DHT22;18837;46.832;16.838;2023-04-27T02:37:58;11.50;81.00
32366;DHT22;18837;46.832;16.838;2023-04-27T02:40:24;11.50;81.00
32366;DHT22;18837;46.832;16.838;2023-04-27T02:42:50;11.50;80.80
32366;DHT22;18837;46.832;16.838;2023-04-27T02:45:16;11.50;81.10
32366;DHT22;18837;46.832;16.838;2023-04-27T02:47:54;11.50;81.50
32366;DHT22;18837;46.832;16.838;2023-04-27T02:50:20;11.50;81.40
32366;DHT22;18837;46.832;16.838;2023-04-27T02:52:45;11.50;81.50
32366;DHT22;18837;46.832;16.838;2023-04-27T02:55:11;11.50;81.20
32366;DHT22;18837;46.832;16.838;2023-04-27T02:57:39;11.40;81.70
32366;DHT22;18837;46.832;16.838;2023-04-27T03:00:06;11.40;81.00
32366;DHT22;18837;46.832;16.838;2023-04-27T03:02:48;11.40;82.00
32366;DHT22;18837;46.832;16.838;2023-04-27T03:05:27;11.40;81.30
32366;DHT22;18837;46.832;16.838;2023-04-27T03:07:53;11.40;81.20
32366;DHT22;18837;46.832;16.838;2023-04-27T03:10:19;11.40;81.40
32366;DHT22;18837;46.832;16.838;2023-04-27T03:12:45;11.30;81.20
32366;DHT22;18837;46.832;16.838;2023-04-27T03:15:11;11.30;81.30
32366;DHT22;18837;46.832;16.838;2023-04-27T03:17:36;11.30;81.30
32366;DHT22;18837;46.832;16.838;2023-04-27T03:20:21;11.30;81.50
32366;DHT22;18837;46.832;16.838;2023-04-27T03:22:47;11.30;81.50
32366;DHT22;18837;46.832;16.838;2023-04-27T03:25:12;11.30;81.80
32366;DHT22;18837;46.832;16.838;2023-04-27T03:27:39;11.20;81.40
32366;DHT22;18837;46.832;16.838;2023-04-27T03:30:05;11.20;82.40
32366;DHT22;18837;46.832;16.838;2023-04-27T03:32:31;11.20;82.30
32366;DHT22;18837;46.832;16.838;2023-04-27T03:34:57;11.20;81.20
32366;DHT22;18837;46.832;16.838;2023-04-27T03:37:41;11.20;81.30
32366;DHT22;18837;46.832;16.838;2023-04-27T03:40:24;11.20;81.50
32366;DHT22;18837;46.832;16.838;2023-04-27T03:42:50;11.20;81.40
32366;DHT22;18837;46.832;16.838;2023-04-27T03:45:16;11.20;82.70
32366;DHT22;18837;46.832;16.838;2023-04-27T03:47:43;11.10;81.70
32366;DHT22;18837;46.832;16.838;2023-04-27T03:50:09;11.20;81.60
32366;DHT22;18837;46.832;16.838;2023-04-27T03:52:35;11.20;81.50
32366;DHT22;18837;46.832;16.838;2023-04-27T03:55:37;11.10;81.50
32366;DHT22;18837;46.832;16.838;2023-04-27T03:58:03;11.10;82.90
32366;DHT22;18837;46.832;16.838;2023-04-27T04:00:29;11.10;81.50
32366;DHT22;18837;46.832;16.838;2023-04-27T04:02:56;11.10;81.70
32366;DHT22;18837;46.832;16.838;2023-04-27T04:05:22;11.10;81.90
32366;DHT22;18837;46.832;16.838;2023-04-27T04:07:48;11.10;81.70
32366;DHT22;18837;46.832;16.838;2023-04-27T04:10:29;11.10;82.50
32366;DHT22;18837;46.832;16.838;2023-04-27T04:13:17;11.10;81.90
32366;DHT22;18837;46.832;16.838;2023-04-27T04:15:48;11.10;83.80
32366;DHT22;18837;46.832;16.838;2023-04-27T04:18:14;11.00;82.00
32366;DHT22;18837;46.832;16.838;2023-04-27T04:20:40;11.00;81.40
32366;DHT22;18837;46.832;16.838;2023-04-27T04:23:06;11.10;81.80
32366;DHT22;18837;46.832;16.838;2023-04-27T04:25:32;11.00;82.50
32366;DHT22;18837;46.832;16.838;2023-04-27T04:27:58;11.00;82.60
32366;DHT22;18837;46.832;16.838;2023-04-27T04:30:29;11.00;81.50
32366;DHT22;18837;46.832;16.838;2023-04-27T04:32:55;11.00;82.10
32366;DHT22;18837;46.832;16.838;2023-04-27T04:35:21;11.00;82.10
32366;DHT22;18837;46.832;16.838;2023-04-27T04:37:47;11.00;82.30
32366;DHT22;18837;46.832;16.838;2023-04-27T04:40:13;11.00;83.30
32366;DHT22;18837;46.832;16.838;2023-04-27T04:42:39;11.00;82.30
32366;DHT22;18837;46.832;16.838;2023-04-27T04:45:17;11.00;82.00
32366;DHT22;18837;46.832;16.838;2023-04-27T04:47:55;11.00;82.10
32366;DHT22;18837;46.832;16.838;2023-04-27T04:50:26;11.00;82.00
32366;DHT22;18837;46.832;16.838;2023-04-27T04:52:53;11.00;81.90
32366;DHT22;18837;46.832;16.838;2023-04-27T04:55:19;11.00;82.90
32366;DHT22;18837;46.832;16.838;2023-04-27T04:57:45;11.00;83.10
32366;DHT22;18837;46.832;16.838;2023-04-27T05:00:11;11.00;82.30
32366;DHT22;18837;46.832;16.838;2023-04-27T05:02:39;11.00;83.40
32366;DHT22;18837;46.832;16.838;2023-04-27T05:05:06;11.00;82.20
32366;DHT22;18837;46.832;16.838;2023-04-27T05:07:32;11.00;82.40
32366;DHT22;18837;46.832;16.838;2023-04-27T05:09:58;11.00;82.20
32366;DHT22;18837;46.832;16.838;2023-04-27T05:12:24;11.10;82.10
32366;DHT22;18837;46.832;16.838;2023-04-27T05:14:53;11.10;83.00
32366;DHT22;18837;46.832;16.838;2023-04-27T05:17:18;11.10;82.20
32366;DHT22;18837;46.832;16.838;2023-04-27T05:19:44;11.10;81.90
32366;DHT22;18837;46.832;16.838;2023-04-27T05:22:10;11.10;82.20
32366;DHT22;18837;46.832;16.838;2023-04-27T05:24:36;11.10;82.70
32366;DHT22;18837;46.832;16.838;2023-04-27T05:27:04;11.10;81.80
32366;DHT22;18837;46.832;16.838;2023-04-27T05:29:30;11.10;81.90
32366;DHT22;18837;46.832;16.838;2023-04-27T05:31:56;11.10;81.60
32366;DHT22;18837;46.832;16.838;2023-04-27T05:34:28;11.10;82.00
32366;DHT22;18837;46.832;16.838;2023-04-27T05:36:54;11.10;82.70
32366;DHT22;18837;46.832;16.838;2023-04-27T05:39:20;11.20;82.40
32366;DHT22;18837;46.832;16.838;2023-04-27T05:41:46;11.20;82.50
32366;DHT22;18837;46.832;16.838;2023-04-27T05:44:12;11.20;82.60
32366;DHT22;18837;46.832;16.838;2023-04-27T05:46:37;11.20;82.20
32366;DHT22;18837;46.832;16.838;2023-04-27T05:49:07;11.20;82.90
32366;DHT22;18837;46.832;16.838;2023-04-27T05:51:37;11.20;81.90
32366;DHT22;18837;46.832;16.838;2023-04-27T05:54:08;11.20;82.60
32366;DHT22;18837;46.832;16.838;2023-04-27T05:56:34;11.20;82.30
32366;DHT22;18837;46.832;16.838;2023-04-27T05:58:59;11.20;82.00
32366;DHT22;18837;46.832;16.838;2023-04-27T06:01:25;11.20;82.10
32366;DHT22;18837;46.832;16.838;2023-04-27T06:03:51;11.20;82.20
32366;DHT22;18837;46.832;16.838;2023-04-27T06:06:17;11.30;82.00
32366;DHT22;18837;46.832;16.838;2023-04-27T06:08:43;11.30;82.00
32366;DHT22;18837;46.832;16.838;2023-04-27T06:11:09;11.30;82.90
32366;DHT22;18837;46.832;16.838;2023-04-27T06:13:35;11.30;82.40
32366;DHT22;18837;46.832;16.838;2023-04-27T06:16:00;11.30;82.30
32366;DHT22;18837;46.832;16.838;2023-04-27T06:18:26;11.30;82.30
32366;DHT22;18837;46.832;16.838;2023-04-27T06:20:52;11.30;82.60
32366;DHT22;18837;46.832;16.838;2023-04-27T06:23:27;11.30;82.50
32366;DHT22;18837;46.832;16.838;2023-04-27T06:25:53;11.40;82.50
32366;DHT22;18837;46.832;16.838;2023-04-27T06:28:19;11.40;82.40
32366;DHT22;18837;46.832;16.838;2023-04-27T06:30:44;11.40;82.60
32366;DHT22;18837;46.832;16.838;2023-04-27T06:33:10;11.40;82.50
32366;DHT22;18837;46.832;16.838;2023-04-27T06:35:36;11.40;82.30
32366;DHT22;18837;46.832;16.838;2023-04-27T06:38:02;11.40;82.60
32366;DHT22;18837;46.832;16.838;2023-04-27T06:40:27;11.50;82.80
32366;DHT22;18837;46.832;16.838;2023-04-27T06:43:05;11.50;82.70
32366;DHT22;18837;46.832;16.838;2023-04-27T06:45:37;11.50;82.50
32366;DHT22;18837;46.832;16.838;2023-04-27T06:48:03;11.50;82.40
32366;DHT22;18837;46.832;16.838;2023-04-27T06:50:29;11.60;82.50
32366;DHT22;18837;46.832;16.838;2023-04-27T06:52:55;11.60;82.50
32366;DHT22;18837;46.832;16.838;2023-04-27T06:55:21;11.60;82.40
32366;DHT22;18837;46.832;16.838;2023-04-27T06:57:46;11.70;82.60
32366;DHT22;18837;46.832;16.838;2023-04-27T07:00:13;11.70;82.20
32366;DHT22;18837;46.832;16.838;2023-04-27T07:02:38;11.70;82.40
32366;DHT22;18837;46.832;16.838;2023-04-27T07:05:04;11.70;82.00
32366;DHT22;18837;46.832;16.838;2023-04-27T07:07:30;11.70;82.40
32366;DHT22;18837;46.832;16.838;2023-04-27T07:09:56;11.80;82.40
32366;DHT22;18837;46.832;16.838;2023-04-27T07:12:22;11.80;82.00
32366;DHT22;18837;46.832;16.838;2023-04-27T07:14:48;11.80;82.00
32366;DHT22;18837;46.832;16.838;2023-04-27T07:17:15;11.80;81.80
32366;DHT22;18837;46.832;16.838;2023-04-27T07:19:41;11.80;81.70
32366;DHT22;18837;46.832;16.838;2023-04-27T07:22:07;11.90;82.30
32366;DHT22;18837;46.832;16.838;2023-04-27T07:24:32;11.90;81.60
32366;DHT22;18837;46.832;16.838;2023-04-27T07:26:58;11.90;81.50
32366;DHT22;18837;46.832;16.838;2023-04-27T07:29:27;11.90;82.40
32366;DHT22;18837;46.832;16.838;2023-04-27T07:32:05;12.00;81.80
32366;DHT22;18837;46.832;16.838;2023-04-27T07:34:31;12.00;81.20
32366;DHT22;18837;46.832;16.838;2023-04-27T07:36:57;12.00;81.70
32366;DHT22;18837;46.832;16.838;2023-04-27T07:39:23;12.00;81.70
32366;DHT22;18837;46.832;16.838;2023-04-27T07:41:49;12.00;81.60
32366;DHT22;18837;46.832;16.838;2023-04-27T07:44:16;12.00;82.20
32366;DHT22;18837;46.832;16.838;2023-04-27T07:46:48;12.00;82.20
32366;DHT22;18837;46.832;16.838;2023-04-27T07:49:23;12.00;81.40
32366;DHT22;18837;46.832;16.838;2023-04-27T07:51:56;12.00;81.50
32366;DHT22;18837;46.832;16.838;2023-04-27T07:54:22;12.00;81.40
32366;DHT22;18837;46.832;16.838;2023-04-27T07:56:48;12.00;81.10
32366;DHT22;18837;46.832;16.838;2023-04-27T07:59:14;12.10;81.50
32366;DHT22;18837;46.832;16.838;2023-04-27T08:01:40;12.10;81.20
32366;DHT22;18837;46.832;16.838;2023-04-27T08:04:06;12.00;80.50
32366;DHT22;18837;46.832;16.838;2023-04-27T08:06:32;12.10;80.60
32366;DHT22;18837;46.832;16.838;2023-04-27T08:08:57;12.10;80.20
32366;DHT22;18837;46.832;16.838;2023-04-27T08:11:25;12.10;80.10
32366;DHT22;18837;46.832;16.838;2023-04-27T08:13:51;12.20;80.00
32366;DHT22;18837;46.832;16.838;2023-04-27T08:16:17;12.20;79.60
32366;DHT22;18837;46.832;16.838;2023-04-27T08:18:43;12.20;79.40
32366;DHT22;18837;46.832;16.838;2023-04-27T08:21:09;12.20;79.50
32366;DHT22;18837;46.832;16.838;2023-04-27T08:23:35;12.20;79.80
32366;DHT22;18837;46.832;16.838;2023-04-27T08:26:03;12.30;80.00
32366;DHT22;18837;46.832;16.838;2023-04-27T08:28:29;12.30;79.80
32366;DHT22;18837;46.832;16.838;2023-04-27T08:30:55;12.30;79.70
32366;DHT22;18837;46.832;16.838;2023-04-27T08:33:21;12.40;80.10
32366;DHT22;18837;46.832;16.838;2023-04-27T08:35:54;12.40;80.00
32366;DHT22;18837;46.832;16.838;2023-04-27T08:38:20;12.40;80.70
32366;DHT22;18837;46.832;16.838;2023-04-27T08:40:46;12.50;81.10
32366;DHT22;18837;46.832;16.838;2023-04-27T08:43:11;12.50;80.60
32366;DHT22;18837;46.832;16.838;2023-04-27T08:45:38;12.50;79.70
32366;DHT22;18837;46.832;16.838;2023-04-27T08:48:12;12.60;79.50
32366;DHT22;18837;46.832;16.838;2023-04-27T08:50:45;12.60;80.20
32366;DHT22;18837;46.832;16.838;2023-04-27T08:53:44;12.70;80.70
32366;DHT22;18837;46.832;16.838;2023-04-27T08:56:26;12.70;81.60
32366;DHT22;18837;46.832;16.838;2023-04-27T08:58:54;12.80;81.90
32366;DHT22;18837;46.832;16.838;2023-04-27T09:01:21;12.80;81.80
32366;DHT22;18837;46.832;16.838;2023-04-27T09:03:48;12.90;82.60
32366;DHT22;18837;46.832;16.838;2023-04-27T09:06:14;12.90;82.10
32366;DHT22;18837;46.832;16.838;2023-04-27T09:08:45;13.00;80.00
32366;DHT22;18837;46.832;16.838;2023-04-27T09:11:40;13.00;78.30
32366;DHT22;18837;46.832;16.838;2023-04-27T09:14:17;13.00;79.50
32366;DHT22;18837;46.832;16.838;2023-04-27T09:16:43;13.10;79.80
32366;DHT22;18837;46.832;16.838;2023-04-27T09:19:09;13.10;78.50
32366;DHT22;18837;46.832;16.838;2023-04-27T09:21:36;13.10;77.40
32366;DHT22;18837;46.832;16.838;2023-04-27T09:24:12;13.10;77.00
32366;DHT22;18837;46.832;16.838;2023-04-27T09:30:38;13.20;76.60
32366;DHT22;18837;46.832;16.838;2023-04-27T09:33:04;13.20;77.00
32366;DHT22;18837;46.832;16.838;2023-04-27T09:35:31;13.20;76.90
32366;DHT22;18837;46.832;16.838;2023-04-27T09:37:58;13.30;77.10
32366;DHT22;18837;46.832;16.838;2023-04-27T09:40:27;13.30;76.90
32366;DHT22;18837;46.832;16.838;2023-04-27T09:42:54;13.30;76.20
32366;DHT22;18837;46.832;16.838;2023-04-27T09:45:23;13.30;76.70
32366;DHT22;18837;46.832;16.838;2023-04-27T09:47:49;13.30;76.40
32366;DHT22;18837;46.832;16.838;2023-04-27T09:50:15;13.40;76.10
32366;DHT22;18837;46.832;16.838;2023-04-27T09:52:42;13.40;76.80
32366;DHT22;18837;46.832;16.838;2023-04-27T09:55:24;13.40;76.20
32366;DHT22;18837;46.832;16.838;2023-04-27T09:58:18;13.40;76.50
32366;DHT22;18837;46.832;16.838;2023-04-27T10:03:35;13.60;77.50
32366;DHT22;18837;46.832;16.838;2023-04-27T10:09:20;13.70;82.20
32366;DHT22;18837;46.832;16.838;2023-04-27T10:11:48;13.80;81.70
32366;DHT22;18837;46.832;16.838;2023-04-27T10:14:22;13.80;79.30
32366;DHT22;18837;46.832;16.838;2023-04-27T10:16:54;13.80;76.00
32366;DHT22;18837;46.832;16.838;2023-04-27T10:19:21;13.80;75.80
32366;DHT22;18837;46.832;16.838;2023-04-27T10:21:55;13.90;76.80
32366;DHT22;18837;46.832;16.838;2023-04-27T10:24:40;13.90;76.80
32366;DHT22;18837;46.832;16.838;2023-04-27T10:27:10;14.00;75.10
32366;DHT22;18837;46.832;16.838;2023-04-27T10:29:55;14.00;77.50
32366;DHT22;18837;46.832;16.838;2023-04-27T10:32:25;14.10;78.20
32366;DHT22;18837;46.832;16.838;2023-04-27T10:35:02;14.10;80.50
32366;DHT22;18837;46.832;16.838;2023-04-27T10:37:41;14.20;80.20
32366;DHT22;18837;46.832;16.838;2023-04-27T10:40:09;14.20;80.70
32366;DHT22;18837;46.832;16.838;2023-04-27T10:42:39;14.30;80.20
32366;DHT22;18837;46.832;16.838;2023-04-27T10:45:41;14.40;79.90
32366;DHT22;18837;46.832;16.838;2023-04-27T10:51:16;14.50;77.70
32366;DHT22;18837;46.832;16.838;2023-04-27T10:53:42;14.50;78.20
32366;DHT22;18837;46.832;16.838;2023-04-27T10:56:09;14.50;78.30
32366;DHT22;18837;46.832;16.838;2023-04-27T10:58:36;14.60;79.20
32366;DHT22;18837;46.832;16.838;2023-04-27T11:01:02;14.70;80.80
32366;DHT22;18837;46.832;16.838;2023-04-27T11:03:28;14.70;78.50
32366;DHT22;18837;46.832;16.838;2023-04-27T11:06:00;14.70;75.20
32366;DHT22;18837;46.832;16.838;2023-04-27T11:08:27;14.70;74.50
32366;DHT22;18837;46.832;16.838;2023-04-27T11:10:55;14.70;74.80
32366;DHT22;18837;46.832;16.838;2023-04-27T11:13:23;14.70;79.00
32366;DHT22;18837;46.832;16.838;2023-04-27T11:15:54;14.80;77.70
32366;DHT22;18837;46.832;16.838;2023-04-27T11:18:22;14.80;77.40
32366;DHT22;18837;46.832;16.838;2023-04-27T11:20:51;14.80;76.60
32366;DHT22;18837;46.832;16.838;2023-04-27T11:23:31;14.90;75.50
32366;DHT22;18837;46.832;16.838;2023-04-27T11:26:10;14.80;75.40
32366;DHT22;18837;46.832;16.838;2023-04-27T11:28:37;14.80;76.40
32366;DHT22;18837;46.832;16.838;2023-04-27T11:31:02;14.80;74.40
32366;DHT22;18837;46.832;16.838;2023-04-27T11:33:31;14.80;72.20
32366;DHT22;18837;46.832;16.838;2023-04-27T11:35:58;14.70;69.50
32366;DHT22;18837;46.832;16.838;2023-04-27T11:38:24;14.70;69.00
32366;DHT22;18837;46.832;16.838;2023-04-27T11:41:01;14.60;67.80
32366;DHT22;18837;46.832;16.838;2023-04-27T11:43:31;14.60;67.20
32366;DHT22;18837;46.832;16.838;2023-04-27T11:46:00;14.70;65.60
32366;DHT22;18837;46.832;16.838;2023-04-27T11:48:28;14.80;65.50
32366;DHT22;18837;46.832;16.838;2023-04-27T11:50:56;14.80;66.80
32366;DHT22;18837;46.832;16.838;2023-04-27T11:53:46;14.80;67.00
32366;DHT22;18837;46.832;16.838;2023-04-27T11:56:13;14.90;68.90
32366;DHT22;18837;46.832;16.838;2023-04-27T11:58:39;14.90;71.30
32366;DHT22;18837;46.832;16.838;2023-04-27T12:01:06;15.00;73.20
32366;DHT22;18837;46.832;16.838;2023-04-27T12:03:32;15.00;74.20
32366;DHT22;18837;46.832;16.838;2023-04-27T12:05:58;15.10;77.10
32366;DHT22;18837;46.832;16.838;2023-04-27T12:08:24;15.10;75.10
32366;DHT22;18837;46.832;16.838;2023-04-27T12:11:12;15.10;73.80
32366;DHT22;18837;46.832;16.838;2023-04-27T12:13:49;15.20;71.70
32366;DHT22;18837;46.832;16.838;2023-04-27T12:16:15;15.10;70.60
32366;DHT22;18837;46.832;16.838;2023-04-27T12:18:41;15.20;71.90
32366;DHT22;18837;46.832;16.838;2023-04-27T12:21:06;15.10;73.10
32366;DHT22;18837;46.832;16.838;2023-04-27T12:23:33;15.10;73.30
32366;DHT22;18837;46.832;16.838;2023-04-27T12:25:59;15.10;71.50
32366;DHT22;18837;46.832;16.838;2023-04-27T12:28:30;15.10;72.50
32366;DHT22;18837;46.832;16.838;2023-04-27T12:30:56;15.10;73.90
32366;DHT22;18837;46.832;16.838;2023-04-27T12:33:22;15.00;73.60
32366;DHT22;18837;46.832;16.838;2023-04-27T12:35:48;15.00;74.80
32366;DHT22;18837;46.832;16.838;2023-04-27T12:38:13;15.00;74.70
32366;DHT22;18837;46.832;16.838;2023-04-27T12:40:40;15.00;73.30
32366;DHT22;18837;46.832;16.838;2023-04-27T12:43:07;15.00;72.60
32366;DHT22;18837;46.832;16.838;2023-04-27T12:45:53;14.90;71.80
32366;DHT22;18837;46.832;16.838;2023-04-27T12:48:35;14.90;71.80
32366;DHT22;18837;46.832;16.838;2023-04-27T12:51:01;15.00;71.80
32366;DHT22;18837;46.832;16.838;2023-04-27T12:53:28;15.00;72.40
32366;DHT22;18837;46.832;16.838;2023-04-27T12:55:53;15.00;72.80
32366;DHT22;18837;46.832;16.838;2023-04-27T12:58:20;15.10;72.40
32366;DHT22;18837;46.832;16.838;2023-04-27T13:00:46;15.10;72.00
32366;DHT22;18837;46.832;16.838;2023-04-27T13:03:11;15.10;69.40
32366;DHT22;18837;46.832;16.838;2023-04-27T13:05:37;15.20;66.10
32366;DHT22;18837;46.832;16.838;2023-04-27T13:08:03;15.30;67.90
32366;DHT22;18837;46.832;16.838;2023-04-27T13:10:31;15.40;67.80
32366;DHT22;18837;46.832;16.838;2023-04-27T13:12:57;15.50;68.70
32366;DHT22;18837;46.832;16.838;2023-04-27T13:15:24;15.60;67.30
32366;DHT22;18837;46.832;16.838;2023-04-27T13:17:50;15.70;65.50
32366;DHT22;18837;46.832;16.838;2023-04-27T13:20:17;15.80;65.70
32366;DHT22;18837;46.832;16.838;2023-04-27T13:22:43;15.90;62.60
32366;DHT22;18837;46.832;16.838;2023-04-27T13:25:09;15.90;63.80
32366;DHT22;18837;46.832;16.838;2023-04-27T13:27:35;15.90;63.00
32366;DHT22;18837;46.832;16.838;2023-04-27T13:30:00;15.90;60.80
32366;DHT22;18837;46.832;16.838;2023-04-27T13:32:26;15.90;59.10
32366;DHT22;18837;46.832;16.838;2023-04-27T13:34:52;15.90;59.30
32366;DHT22;18837;46.832;16.838;2023-04-27T13:37:21;15.90;59.70
32366;DHT22;18837;46.832;16.838;2023-04-27T13:39:47;15.90;59.80
32366;DHT22;18837;46.832;16.838;2023-04-27T13:42:12;15.90;60.20
32366;DHT22;18837;46.832;16.838;2023-04-27T13:44:38;15.90;60.90
32366;DHT22;18837;46.832;16.838;2023-04-27T13:47:04;15.80;63.50
32366;DHT22;18837;46.832;16.838;2023-04-27T13:49:29;16.00;63.50
32366;DHT22;18837;46.832;16.838;2023-04-27T13:51:55;16.00;62.70
32366;DHT22;18837;46.832;16.838;2023-04-27T13:54:36;16.00;64.20
32366;DHT22;18837;46.832;16.838;2023-04-27T13:57:22;16.00;64.70
32366;DHT22;18837;46.832;16.838;2023-04-27T13:59:48;16.00;67.40
32366;DHT22;18837;46.832;16.838;2023-04-27T14:02:13;15.90;68.20
32366;DHT22;18837;46.832;16.838;2023-04-27T14:04:39;15.90;67.80
32366;DHT22;18837;46.832;16.838;2023-04-27T14:07:05;15.90;67.40
32366;DHT22;18837;46.832;16.838;2023-04-27T14:09:31;15.90;67.90
32366;DHT22;18837;46.832;16.838;2023-04-27T14:14:32;15.90;67.90
32366;DHT22;18837;46.832;16.838;2023-04-27T14:17:00;16.00;68.10
32366;DHT22;18837;46.832;16.838;2023-04-27T14:19:26;16.00;68.30
32366;DHT22;18837;46.832;16.838;2023-04-27T14:21:52;16.00;69.60
32366;DHT22;18837;46.832;16.838;2023-04-27T14:24:18;16.00;69.50
32366;DHT22;18837;46.832;16.838;2023-04-27T14:26:44;16.10;71.10
32366;DHT22;18837;46.832;16.838;2023-04-27T14:29:12;16.20;70.30
32366;DHT22;18837;46.832;16.838;2023-04-27T14:31:39;16.20;71.20
32366;DHT22;18837;46.832;16.838;2023-04-27T14:34:05;16.30;69.40
32366;DHT22;18837;46.832;16.838;2023-04-27T14:36:32;16.30;69.00
32366;DHT22;18837;46.832;16.838;2023-04-27T14:38:59;16.40;70.20
32366;DHT22;18837;46.832;16.838;2023-04-27T14:41:27;16.40;68.60
32366;DHT22;18837;46.832;16.838;2023-04-27T14:43:53;16.40;68.90
32366;DHT22;18837;46.832;16.838;2023-04-27T14:46:19;16.40;68.40
32366;DHT22;18837;46.832;16.838;2023-04-27T14:48:45;16.40;67.20
32366;DHT22;18837;46.832;16.838;2023-04-27T14:51:12;16.40;67.10
32366;DHT22;18837;46.832;16.838;2023-04-27T14:53:38;16.50;67.60
32366;DHT22;18837;46.832;16.838;2023-04-27T14:56:04;16.50;67.40
32366;DHT22;18837;46.832;16.838;2023-04-27T14:58:30;16.50;69.70
32366;DHT22;18837;46.832;16.838;2023-04-27T15:00:59;16.50;67.30
32366;DHT22;18837;46.832;16.838;2023-04-27T15:03:28;16.50;66.60
32366;DHT22;18837;46.832;16.838;2023-04-27T15:05:57;16.40;66.40
32366;DHT22;18837;46.832;16.838;2023-04-27T15:08:23;16.40;66.00
32366;DHT22;18837;46.832;16.838;2023-04-27T15:10:48;16.40;65.00
32366;DHT22;18837;46.832;16.838;2023-04-27T15:13:14;16.40;65.40
32366;DHT22;18837;46.832;16.838;2023-04-27T15:15:40;16.40;65.40
32366;DHT22;18837;46.832;16.838;2023-04-27T15:18:10;16.40;66.20
32366;DHT22;18837;46.832;16.838;2023-04-27T15:20:37;16.40;65.30
32366;DHT22;18837;46.832;16.838;2023-04-27T15:23:03;16.40;65.10
32366;DHT22;18837;46.832;16.838;2023-04-27T15:25:29;16.40;64.80
32366;DHT22;18837;46.832;16.838;2023-04-27T15:27:55;16.40;65.30
32366;DHT22;18837;46.832;16.838;2023-04-27T15:30:21;16.30;63.70
32366;DHT22;18837;46.832;16.838;2023-04-27T15:32:47;16.30;62.80
32366;DHT22;18837;46.832;16.838;2023-04-27T15:35:12;16.20;61.90
32366;DHT22;18837;46.832;16.838;2023-04-27T15:37:41;16.20;63.30
32366;DHT22;18837;46.832;16.838;2023-04-27T15:40:07;16.10;62.00